createdAt,value
2022-09-15T00:01:03.256Z,0.50
2022-09-15T00:03:30.506Z,0.40
2022-09-15T00:05:57.825Z,0.20
2022-09-15T00:08:28.778Z,0.30
2022-09-15T00:11:03.866Z,0.20
2022-09-15T00:13:30.896Z,0.20
2022-09-15T00:16:03.973Z,0.20
2022-09-15T00:18:31.308Z,0.20
2022-09-15T00:20:58.592Z,0.25
2022-09-15T00:23:25.878Z,0.30
2022-09-15T00:25:53.901Z,0.30
2022-09-15T00:28:21.691Z,0.30
2022-09-15T00:30:50.136Z,0.20
2022-09-15T00:33:20.709Z,0.25
2022-09-15T00:35:54.684Z,0.20
2022-09-15T00:38:21.940Z,0.40
2022-09-15T00:40:51.939Z,0.40
2022-09-15T00:43:20.352Z,0.30
2022-09-15T00:45:48.426Z,0.25
2022-09-15T00:48:17.513Z,0.40
2022-09-15T00:50:47.024Z,0.40
2022-09-15T00:53:14.490Z,0.30
2022-09-15T00:55:43.755Z,0.35
2022-09-15T00:58:16.799Z,0.30
2022-09-15T01:00:47.719Z,0.30
2022-09-15T01:03:15.696Z,0.30
2022-09-15T01:05:49.161Z,0.30
2022-09-15T01:08:23.062Z,0.30
2022-09-15T01:10:51.276Z,0.30
2022-09-15T01:13:20.738Z,0.28
2022-09-15T01:15:47.746Z,0.30
2022-09-15T01:18:33.414Z,0.38
2022-09-15T01:21:16.663Z,0.30
2022-09-15T01:24:01.302Z,0.30
2022-09-15T01:26:28.372Z,0.38
2022-09-15T01:29:13.993Z,0.30
2022-09-15T01:32:05.675Z,0.40
2022-09-15T01:34:41.324Z,0.20
2022-09-15T01:37:14.067Z,0.30
2022-09-15T01:39:42.605Z,0.40
2022-09-15T01:42:12.459Z,0.30
2022-09-15T01:44:42.313Z,0.28
2022-09-15T01:47:13.804Z,0.20
2022-09-15T01:49:47.299Z,0.20
2022-09-15T01:52:17.148Z,0.20
2022-09-15T01:54:52.230Z,0.30
2022-09-15T01:57:22.715Z,0.10
2022-09-15T01:59:50.331Z,0.20
2022-09-15T02:02:49.711Z,0.40
2022-09-15T02:05:25.210Z,0.20
2022-09-15T02:07:54.959Z,0.20
2022-09-15T02:10:51.199Z,0.20
2022-09-15T02:13:21.693Z,0.32
2022-09-15T02:15:51.586Z,0.17
2022-09-15T02:18:34.572Z,0.20
2022-09-15T02:21:15.213Z,0.20
2022-09-15T02:23:44.479Z,0.30
2022-09-15T02:26:17.485Z,0.30
2022-09-15T02:28:46.364Z,0.30
2022-09-15T02:31:15.743Z,0.20
2022-09-15T02:33:48.079Z,0.17
2022-09-15T02:36:16.514Z,0.10
2022-09-15T02:38:46.500Z,0.20
2022-09-15T02:41:14.058Z,0.20
2022-09-15T02:43:48.324Z,0.10
2022-09-15T02:46:19.903Z,0.20
2022-09-15T02:48:47.073Z,0.10
2022-09-15T02:51:14.458Z,0.20
2022-09-15T02:53:42.698Z,0.23
2022-09-15T02:56:10.009Z,0.20
2022-09-15T02:58:37.081Z,0.10
2022-09-15T03:01:07.697Z,0.10
2022-09-15T03:03:35.089Z,0.20
2022-09-15T03:06:17.323Z,0.10
2022-09-15T03:08:44.494Z,0.10
2022-09-15T03:11:14.436Z,0.10
2022-09-15T03:13:42.069Z,0.10
2022-09-15T03:16:09.859Z,0.10
2022-09-15T03:18:37.627Z,0.10
2022-09-15T03:21:05.863Z,0.10
2022-09-15T03:23:33.453Z,0.10
2022-09-15T03:26:00.688Z,0.10
2022-09-15T03:28:28.050Z,0.00
2022-09-15T03:30:55.689Z,0.10
2022-09-15T03:33:23.051Z,0.10
2022-09-15T03:35:50.511Z,0.10
2022-09-15T03:38:18.147Z,0.10
2022-09-15T03:40:45.385Z,0.00
2022-09-15T03:43:18.035Z,0.00
2022-09-15T03:45:46.006Z,0.10
2022-09-15T03:48:13.320Z,0.10
2022-09-15T03:50:40.356Z,0.10
2022-09-15T03:53:07.408Z,0.10
2022-09-15T03:55:34.469Z,0.20
2022-09-15T03:58:01.504Z,0.20
2022-09-15T04:00:29.305Z,0.10
2022-09-15T04:02:56.408Z,0.20
2022-09-15T04:05:23.501Z,0.20
2022-09-15T04:07:51.008Z,0.20
2022-09-15T04:10:18.588Z,0.30
2022-09-15T04:12:48.470Z,0.47
2022-09-15T04:15:18.902Z,0.60
2022-09-15T04:17:46.041Z,0.70
2022-09-15T04:20:13.344Z,0.95
2022-09-15T04:22:40.417Z,0.85
2022-09-15T04:25:08.807Z,1.00
2022-09-15T04:27:36.366Z,0.80
2022-09-15T04:30:04.185Z,1.02
2022-09-15T04:32:31.200Z,0.80
2022-09-15T04:35:01.282Z,0.80
2022-09-15T04:37:28.406Z,1.10
2022-09-15T04:39:55.630Z,1.17
2022-09-15T04:42:22.745Z,0.83
2022-09-15T04:44:49.811Z,1.00
2022-09-15T04:47:17.451Z,1.00
2022-09-15T04:49:44.524Z,1.10
2022-09-15T04:52:11.599Z,1.00
2022-09-15T04:54:41.814Z,1.48
2022-09-15T04:57:11.724Z,1.10
2022-09-15T04:59:38.831Z,1.38
2022-09-15T05:02:06.044Z,1.33
2022-09-15T05:04:33.507Z,1.48
2022-09-15T05:07:00.529Z,1.40
2022-09-15T05:09:29.533Z,1.15
2022-09-15T05:11:56.697Z,1.10
2022-09-15T05:14:23.910Z,1.65
2022-09-15T05:16:53.039Z,1.60
2022-09-15T05:19:20.113Z,1.00
2022-09-15T05:21:47.120Z,1.05
2022-09-15T05:24:14.200Z,1.38
2022-09-15T05:26:41.686Z,1.23
2022-09-15T05:29:09.017Z,0.90
2022-09-15T05:31:36.149Z,1.20
2022-09-15T05:34:04.370Z,1.42
2022-09-15T05:36:31.655Z,1.20
2022-09-15T05:38:58.964Z,1.20
2022-09-15T05:41:28.742Z,0.77
2022-09-15T05:43:59.887Z,1.15
2022-09-15T05:46:27.785Z,0.82
2022-09-15T05:48:56.203Z,0.90
2022-09-15T05:51:23.501Z,1.05
2022-09-15T05:53:51.078Z,0.95
2022-09-15T05:56:18.831Z,0.70
2022-09-15T05:58:49.284Z,1.20
2022-09-15T06:01:27.228Z,0.80
2022-09-15T06:03:54.809Z,0.90
2022-09-15T06:06:22.383Z,0.95
2022-09-15T06:08:55.631Z,0.77
2022-09-15T06:11:26.676Z,0.70
2022-09-15T06:13:53.730Z,0.70
2022-09-15T06:16:22.268Z,0.55
2022-09-15T06:18:50.313Z,0.68
2022-09-15T06:21:27.822Z,0.70
2022-09-15T06:23:56.386Z,0.80
2022-09-15T06:26:23.653Z,0.80
2022-09-15T06:28:52.425Z,0.70
2022-09-15T06:31:20.389Z,0.57
2022-09-15T06:33:48.805Z,0.80
2022-09-15T06:36:16.552Z,1.00
2022-09-15T06:38:44.183Z,0.70
2022-09-15T06:41:11.611Z,0.60
2022-09-15T06:43:39.239Z,0.83
2022-09-15T06:46:07.950Z,0.70
2022-09-15T06:48:35.631Z,0.80
2022-09-15T06:51:03.355Z,0.82
2022-09-15T06:53:34.186Z,0.73
2022-09-15T06:56:18.063Z,0.60
2022-09-15T06:58:45.931Z,0.60
2022-09-15T07:01:20.273Z,0.70
2022-09-15T07:03:47.447Z,0.75
2022-09-15T07:06:14.859Z,0.95
2022-09-15T07:08:42.872Z,0.73
2022-09-15T07:11:10.687Z,0.93
2022-09-15T07:13:37.986Z,0.85
2022-09-15T07:16:30.014Z,0.93
2022-09-15T07:19:00.371Z,0.70
2022-09-15T07:21:30.775Z,0.70
2022-09-15T07:23:59.382Z,0.68
2022-09-15T07:26:28.792Z,0.70
2022-09-15T07:28:57.335Z,0.55
2022-09-15T07:31:28.628Z,0.40
2022-09-15T07:33:56.213Z,0.50
2022-09-15T07:36:26.116Z,0.60
2022-09-15T07:38:53.559Z,0.50
2022-09-15T07:41:22.968Z,0.50
2022-09-15T07:43:51.273Z,0.40
2022-09-15T07:46:20.160Z,0.45
2022-09-15T07:48:48.346Z,0.55
2022-09-15T07:51:16.014Z,0.65
2022-09-15T07:53:43.852Z,0.45
2022-09-15T07:56:11.114Z,0.47
2022-09-15T07:58:38.345Z,0.60
2022-09-15T08:01:07.110Z,0.45
2022-09-15T08:03:34.500Z,0.60
2022-09-15T08:06:02.273Z,0.40
2022-09-15T08:08:30.285Z,0.35
2022-09-15T08:11:00.535Z,0.40
2022-09-15T08:13:29.323Z,0.32
2022-09-15T08:15:56.548Z,0.40
2022-09-15T08:18:23.861Z,0.50
2022-09-15T08:20:51.320Z,0.65
2022-09-15T08:23:18.542Z,0.50
2022-09-15T08:25:45.696Z,0.60
2022-09-15T08:28:12.733Z,0.40
2022-09-15T08:30:39.862Z,0.60
2022-09-15T08:33:07.162Z,0.50
2022-09-15T08:35:34.911Z,0.40
2022-09-15T08:38:01.930Z,0.40
2022-09-15T08:40:31.469Z,0.30
2022-09-15T08:43:00.675Z,0.45
2022-09-15T08:45:30.183Z,0.45
2022-09-15T08:48:00.018Z,0.85
2022-09-15T08:50:32.016Z,0.50
2022-09-15T08:53:12.876Z,0.40
2022-09-15T08:55:40.637Z,0.50
2022-09-15T08:58:14.794Z,0.35
2022-09-15T09:00:42.754Z,0.43
2022-09-15T09:03:16.597Z,0.45
2022-09-15T09:05:54.784Z,0.50
2022-09-15T09:08:27.998Z,0.43
2022-09-15T09:10:57.970Z,0.70
2022-09-15T09:13:39.741Z,0.60
2022-09-15T09:16:16.094Z,0.40
2022-09-15T09:18:49.297Z,0.68
2022-09-15T09:21:26.710Z,0.80
2022-09-15T09:23:57.883Z,0.55
2022-09-15T09:26:25.200Z,0.70
2022-09-15T09:29:02.389Z,0.68
2022-09-15T09:31:30.007Z,0.70
2022-09-15T09:34:26.776Z,0.70
2022-09-15T09:37:00.507Z,0.60
2022-09-15T09:39:30.768Z,0.70
2022-09-15T09:41:59.088Z,0.70
2022-09-15T09:44:31.953Z,0.85
2022-09-15T09:47:00.523Z,1.10
2022-09-15T09:49:45.888Z,0.85
2022-09-15T09:52:17.917Z,0.93
2022-09-15T09:54:51.682Z,0.82
2022-09-15T09:57:28.003Z,1.00
2022-09-15T09:59:55.363Z,0.80
2022-09-15T10:02:28.756Z,1.10
2022-09-15T10:05:12.999Z,1.03
2022-09-15T10:07:46.326Z,1.02
2022-09-15T10:10:25.857Z,0.90
2022-09-15T10:12:56.478Z,1.10
2022-09-15T10:15:32.172Z,1.00
2022-09-15T10:17:59.144Z,0.70
2022-09-15T10:20:32.579Z,1.00
2022-09-15T10:23:17.777Z,1.05
2022-09-15T10:25:58.563Z,0.95
2022-09-15T10:28:27.765Z,1.00
2022-09-15T10:31:31.877Z,0.93
2022-09-15T10:33:58.641Z,1.30
2022-09-15T10:36:32.197Z,1.20
2022-09-15T10:39:13.649Z,0.90
2022-09-15T10:41:59.345Z,1.02
2022-09-15T10:45:03.441Z,0.80
2022-09-15T10:48:09.000Z,1.10
2022-09-15T10:50:54.616Z,1.30
2022-09-15T10:53:40.451Z,1.20
2022-09-15T10:56:13.211Z,1.45
2022-09-15T10:59:17.522Z,1.25
2022-09-15T11:01:59.720Z,1.10
2022-09-15T11:04:54.765Z,1.05
2022-09-15T11:07:47.293Z,1.10
2022-09-15T11:10:42.306Z,1.20
2022-09-15T11:13:51.134Z,1.50
2022-09-15T11:16:49.069Z,1.30
2022-09-15T11:19:25.055Z,1.20
2022-09-15T11:22:02.269Z,1.27
2022-09-15T11:24:41.941Z,1.45
2022-09-15T11:27:14.486Z,1.70
2022-09-15T11:29:47.291Z,1.55
2022-09-15T11:32:19.587Z,1.45
2022-09-15T11:35:00.398Z,1.75
2022-09-15T11:37:36.770Z,1.30
2022-09-15T11:40:22.430Z,1.30
2022-09-15T11:43:13.155Z,1.17
2022-09-15T11:45:47.717Z,0.90
2022-09-15T11:48:19.435Z,1.20
2022-09-15T11:50:48.153Z,1.20
2022-09-15T11:53:36.247Z,1.50
2022-09-15T11:56:21.815Z,1.08
2022-09-15T11:59:01.312Z,1.48
2022-09-15T12:01:43.561Z,1.30
2022-09-15T12:04:20.456Z,1.20
2022-09-15T12:07:24.001Z,1.35
2022-09-15T12:09:50.735Z,1.05
2022-09-15T12:12:22.396Z,1.00
2022-09-15T12:14:52.358Z,0.88
2022-09-15T12:17:38.506Z,0.90
2022-09-15T12:20:19.202Z,1.02
2022-09-15T12:22:57.569Z,0.97
2022-09-15T12:25:35.802Z,0.80
2022-09-15T12:28:24.517Z,0.70
2022-09-15T12:31:11.505Z,1.10
2022-09-15T12:33:46.360Z,0.95
2022-09-15T12:36:31.927Z,0.75
2022-09-15T12:39:00.560Z,0.70
2022-09-15T12:41:28.099Z,0.70
2022-09-15T12:43:57.861Z,0.80
2022-09-15T12:46:27.665Z,0.90
2022-09-15T12:49:02.493Z,0.70
2022-09-15T12:51:29.940Z,0.77
2022-09-15T12:54:01.059Z,0.40
2022-09-15T12:56:31.138Z,0.60
2022-09-15T12:59:07.243Z,0.60
2022-09-15T13:01:48.440Z,0.52
2022-09-15T13:04:41.389Z,0.70
2022-09-15T13:07:17.255Z,0.55
2022-09-15T13:10:15.274Z,0.68
2022-09-15T13:12:51.375Z,0.77
2022-09-15T13:15:25.263Z,0.85
2022-09-15T13:17:52.523Z,0.85
2022-09-15T13:20:25.912Z,0.80
2022-09-15T13:22:56.391Z,0.70
2022-09-15T13:25:31.797Z,0.50
2022-09-15T13:28:03.703Z,0.65
2022-09-15T13:31:04.780Z,0.60
2022-09-15T13:40:47.828Z,0.77
2022-09-15T13:43:29.482Z,0.65
2022-09-15T13:46:35.204Z,0.80
2022-09-15T13:49:27.543Z,0.80
2022-09-15T13:52:01.754Z,0.77
2022-09-15T13:54:28.524Z,0.60
2022-09-15T13:57:01.383Z,0.70
2022-09-15T13:59:32.335Z,0.60
2022-09-15T14:02:00.265Z,0.80
2022-09-15T14:04:32.140Z,0.60
2022-09-15T14:07:01.329Z,0.70
2022-09-15T14:09:43.440Z,0.60
2022-09-15T14:12:13.491Z,0.65
2022-09-15T14:14:54.608Z,0.70
2022-09-15T14:17:29.745Z,0.70
2022-09-15T14:19:58.709Z,0.63
2022-09-15T14:22:34.867Z,0.80
2022-09-15T14:25:14.645Z,0.70
2022-09-15T14:27:46.138Z,0.60
2022-09-15T14:30:31.945Z,0.60
2022-09-15T14:33:01.065Z,0.70
2022-09-15T14:35:33.886Z,0.70
2022-09-15T14:38:01.182Z,0.80
2022-09-15T14:40:37.521Z,0.68
2022-09-15T14:43:25.829Z,0.80
2022-09-15T14:45:56.883Z,0.73
2022-09-15T14:48:30.777Z,0.50
2022-09-15T14:51:23.464Z,0.63
2022-09-15T14:53:56.649Z,0.65
2022-09-15T14:56:28.146Z,0.63
2022-09-15T14:58:58.638Z,0.70
2022-09-15T15:01:34.803Z,0.57
2022-09-15T15:04:10.347Z,0.68
2022-09-15T15:07:01.044Z,0.57
2022-09-15T15:09:34.781Z,0.60
2022-09-15T15:12:09.238Z,0.60
2022-09-15T15:14:38.338Z,0.50
2022-09-15T15:17:08.416Z,0.70
2022-09-15T15:19:40.580Z,0.63
2022-09-15T15:22:11.995Z,0.63
2022-09-15T15:24:48.321Z,0.45
2022-09-15T15:27:50.603Z,0.70
2022-09-15T15:30:32.693Z,0.50
2022-09-15T15:33:26.449Z,0.50
2022-09-15T15:36:06.590Z,0.63
2022-09-15T15:38:44.905Z,0.55
2022-09-15T15:41:22.073Z,0.77
2022-09-15T15:44:15.201Z,0.50
2022-09-15T15:46:45.620Z,0.60
2022-09-15T15:49:13.150Z,0.68
2022-09-15T15:51:40.829Z,0.70
2022-09-15T15:54:07.791Z,0.90
2022-09-15T15:56:37.909Z,0.50
2022-09-15T15:59:09.220Z,0.70
2022-09-15T16:01:36.737Z,0.57
2022-09-15T16:04:03.547Z,0.45
2022-09-15T16:06:30.831Z,0.60
2022-09-15T16:08:58.298Z,0.33
2022-09-15T16:11:25.031Z,0.57
2022-09-15T16:13:54.481Z,0.50
2022-09-15T16:16:24.016Z,0.60
2022-09-15T16:18:51.279Z,0.50
2022-09-15T16:21:27.229Z,0.50
2022-09-15T16:23:54.023Z,0.50
2022-09-15T16:26:24.461Z,0.55
2022-09-15T16:28:52.450Z,0.60
2022-09-15T16:31:19.737Z,0.57
2022-09-15T16:33:47.201Z,0.52
2022-09-15T16:36:18.235Z,0.45
2022-09-15T16:38:45.819Z,0.60
2022-09-15T16:41:17.107Z,0.50
2022-09-15T16:43:44.561Z,0.60
2022-09-15T16:46:18.645Z,0.73
2022-09-15T16:48:48.791Z,0.88
2022-09-15T16:51:26.779Z,0.60
2022-09-15T16:53:56.817Z,0.60
2022-09-15T16:56:24.279Z,0.43
2022-09-15T16:58:59.602Z,0.85
2022-09-15T17:01:27.459Z,0.60
2022-09-15T17:03:54.637Z,0.65
2022-09-15T17:06:22.109Z,0.57
2022-09-15T17:08:49.275Z,0.50
2022-09-15T17:11:18.025Z,0.45
2022-09-15T17:13:45.429Z,0.50
2022-09-15T17:16:15.029Z,0.60
2022-09-15T17:18:41.699Z,0.50
2022-09-15T17:21:13.829Z,0.70
2022-09-15T17:23:44.473Z,0.57
2022-09-15T17:26:18.251Z,0.50
2022-09-15T17:28:44.974Z,0.60
2022-09-15T17:31:16.664Z,0.52
2022-09-15T17:33:43.702Z,0.40
2022-09-15T17:36:11.399Z,0.50
2022-09-15T17:38:40.542Z,0.45
2022-09-15T17:41:18.879Z,0.50
2022-09-15T17:43:47.825Z,0.60
2022-09-15T17:46:14.670Z,0.50
2022-09-15T17:48:41.386Z,0.57
2022-09-15T17:51:09.915Z,0.50
2022-09-15T17:53:37.055Z,0.50
2022-09-15T17:56:04.108Z,0.70
2022-09-15T17:58:32.245Z,0.50
2022-09-15T18:00:59.719Z,0.65
2022-09-15T18:03:30.762Z,0.73
2022-09-15T18:05:59.945Z,0.55
2022-09-15T18:08:29.046Z,0.50
2022-09-15T18:10:56.178Z,0.52
2022-09-15T18:13:27.186Z,0.55
2022-09-15T18:15:54.996Z,0.50
2022-09-15T18:18:23.898Z,0.50
2022-09-15T18:20:52.983Z,0.65
2022-09-15T18:23:24.467Z,0.70
2022-09-15T18:25:51.598Z,0.80
2022-09-15T18:28:19.546Z,0.50
2022-09-15T18:30:48.483Z,0.50
2022-09-15T18:33:20.221Z,0.60
2022-09-15T18:35:48.466Z,0.40
2022-09-15T18:38:16.306Z,0.50
2022-09-15T18:40:48.971Z,0.70
2022-09-15T18:43:16.439Z,0.50
2022-09-15T18:45:43.490Z,0.63
2022-09-15T18:48:12.775Z,0.75
2022-09-15T18:50:40.734Z,0.50
2022-09-15T18:53:07.878Z,0.60
2022-09-15T18:55:35.205Z,0.70
2022-09-15T18:58:02.651Z,0.70
2022-09-15T19:00:32.106Z,0.80
2022-09-15T19:03:00.250Z,0.77
2022-09-15T19:05:27.721Z,0.70
2022-09-15T19:07:55.318Z,0.60
2022-09-15T19:10:22.674Z,0.50
2022-09-15T19:12:49.758Z,0.75
2022-09-15T19:15:17.412Z,0.57
2022-09-15T19:17:44.780Z,0.55
2022-09-15T19:20:13.716Z,1.02
2022-09-15T19:22:44.106Z,0.40
2022-09-15T19:25:11.621Z,0.60
2022-09-15T19:27:39.558Z,0.50
2022-09-15T19:30:09.752Z,0.47
2022-09-15T19:32:37.655Z,0.40
2022-09-15T19:35:05.008Z,0.40
2022-09-15T19:37:32.142Z,0.70
2022-09-15T19:39:59.249Z,0.40
2022-09-15T19:42:26.490Z,0.57
2022-09-15T19:44:54.240Z,0.50
2022-09-15T19:47:21.260Z,0.80
2022-09-15T19:49:48.283Z,0.50
2022-09-15T19:52:15.396Z,0.40
2022-09-15T19:54:42.542Z,0.47
2022-09-15T19:57:10.224Z,0.50
2022-09-15T19:59:37.409Z,0.50
2022-09-15T20:02:04.507Z,0.30
2022-09-15T20:04:34.659Z,0.60
2022-09-15T20:07:02.058Z,0.45
2022-09-15T20:09:29.104Z,0.40
2022-09-15T20:11:56.272Z,0.30
2022-09-15T20:14:23.306Z,0.30
2022-09-15T20:16:50.676Z,0.40
2022-09-15T20:19:20.815Z,0.30
2022-09-15T20:21:51.088Z,0.40
2022-09-15T20:24:19.579Z,0.40
2022-09-15T20:26:48.707Z,0.43
2022-09-15T20:29:15.946Z,0.47
2022-09-15T20:31:43.487Z,0.50
2022-09-15T20:34:10.510Z,0.30
2022-09-15T20:36:38.920Z,0.45
2022-09-15T20:39:08.757Z,0.40
2022-09-15T20:41:36.114Z,0.47
2022-09-15T20:44:03.676Z,0.50
2022-09-15T20:46:31.357Z,0.40
2022-09-15T20:49:01.903Z,0.38
2022-09-15T20:51:33.879Z,0.60
2022-09-15T20:54:03.126Z,0.50
2022-09-15T20:56:34.962Z,0.43
2022-09-15T20:59:02.575Z,0.50
2022-09-15T21:01:32.565Z,0.33
2022-09-15T21:04:01.914Z,0.40
2022-09-15T21:06:29.240Z,0.50
2022-09-15T21:08:57.787Z,0.50
2022-09-15T21:11:26.519Z,0.40
2022-09-15T21:13:54.330Z,0.50
2022-09-15T21:16:23.097Z,0.50
2022-09-15T21:18:50.801Z,0.35
2022-09-15T21:21:38.154Z,0.30
2022-09-15T21:24:07.199Z,0.30
2022-09-15T21:26:54.325Z,0.50
2022-09-15T21:29:23.673Z,0.47
2022-09-15T21:31:55.571Z,0.50
2022-09-15T21:34:23.082Z,0.50
2022-09-15T21:36:53.437Z,0.40
2022-09-15T21:39:20.848Z,0.30
2022-09-15T21:41:47.860Z,0.35
2022-09-15T21:44:15.120Z,0.30
2022-09-15T21:46:42.524Z,0.32
2022-09-15T21:49:09.687Z,0.40
2022-09-15T21:51:36.804Z,0.47
2022-09-15T21:54:04.499Z,0.25
2022-09-15T21:56:34.582Z,0.60
2022-09-15T21:59:03.200Z,0.50
2022-09-15T22:01:31.275Z,0.68
2022-09-15T22:04:02.653Z,0.50
2022-09-15T22:06:40.609Z,0.40
2022-09-15T22:09:09.108Z,0.50
2022-09-15T22:11:36.597Z,0.43
2022-09-15T22:14:07.898Z,0.53
2022-09-15T22:16:35.759Z,0.28
2022-09-15T22:19:02.888Z,0.50
2022-09-15T22:21:36.538Z,0.70
2022-09-15T22:24:06.865Z,0.30
2022-09-15T22:26:36.337Z,0.40
2022-09-15T22:29:03.747Z,0.45
2022-09-15T22:31:33.930Z,0.40
2022-09-15T22:34:00.767Z,0.50
2022-09-15T22:36:30.439Z,0.20
2022-09-15T22:39:05.049Z,0.50
2022-09-15T22:41:37.297Z,0.40
2022-09-15T22:44:05.172Z,0.50
2022-09-15T22:46:33.355Z,0.60
2022-09-15T22:49:02.998Z,0.40
2022-09-15T22:51:29.953Z,0.40
2022-09-15T22:53:57.200Z,0.40
2022-09-15T22:56:26.239Z,0.50
2022-09-15T22:58:54.831Z,0.40
2022-09-15T23:01:26.364Z,0.40
2022-09-15T23:03:56.000Z,0.38
2022-09-15T23:06:23.927Z,0.65
2022-09-15T23:08:57.927Z,0.47
2022-09-15T23:11:26.563Z,0.45
2022-09-15T23:13:54.450Z,0.53
2022-09-15T23:16:23.175Z,0.40
2022-09-15T23:18:50.427Z,0.30
2022-09-15T23:21:17.425Z,0.50
2022-09-15T23:23:46.083Z,0.50
2022-09-15T23:26:19.524Z,0.43
2022-09-15T23:28:46.583Z,0.40
2022-09-15T23:31:14.382Z,0.50
2022-09-15T23:33:41.602Z,0.50
2022-09-15T23:36:11.121Z,0.40
2022-09-15T23:38:39.547Z,0.38
2022-09-15T23:41:07.271Z,0.40
2022-09-15T23:43:34.343Z,0.50
2022-09-15T23:46:01.478Z,0.30
2022-09-15T23:48:28.487Z,0.38
2022-09-15T23:50:55.287Z,0.38
2022-09-15T23:53:21.991Z,0.30
2022-09-15T23:55:48.709Z,0.40
2022-09-15T23:58:15.563Z,0.40
